Time;durP1;ratioP1;P1;durP2;ratioP2;P2;SDS_P1;SDS_P2;PMS_P1;PMS_P2;Temp;Humidity;BMP_temperature;BMP_pressure;BME280_temperature;BME280_humidity;BME280_pressure;Samples;Min_cycle;Max_cycle;Signal;HPM_P1;HPM_P2
2023/09/11 00:47:17;;;;;;;15.68;12.93;;;20.50;94.00;;;;;;6294174;22;20264;-86
2023/09/11 00:54:14;;;;;;;;;;;;;;;;;;;;;
2023/09/11 00:58:05;;;;;;;14.65;12.10;;;20.50;94.20;;;;;;6210827;23;20178;-86
2023/09/11 01:00:30;;;;;;;15.40;12.63;;;20.50;94.10;;;;;;6096454;23;20487;-88
2023/09/11 01:03:06;;;;;;;15.75;12.80;;;20.50;94.40;;;;;;6150606;23;20158;-87
2023/09/11 01:06:10;;;;;;;16.02;13.30;;;20.50;94.00;;;;;;6064771;23;20153;-88
2023/09/11 01:08:56;;;;;;;;;;;;;;;;;;;;;
2023/09/11 01:11:30;;;;;;;16.30;13.18;;;20.50;94.00;;;;;;5951055;24;20243;-87
2023/09/11 01:14:15;;;;;;;15.93;12.75;;;20.50;94.10;;;;;;5911134;24;20204;-88
2023/09/11 01:17:29;;;;;;;;;;;;;;;;;;;;;
2023/09/11 01:23:48;;;;;;;16.60;12.77;;;20.50;94.10;;;;;;5847917;24;20196;-87
2023/09/11 01:26:31;;;;;;;16.65;13.52;;;20.40;94.10;;;;;;5820257;24;20185;-89
2023/09/11 01:29:36;;;;;;;16.50;13.15;;;20.50;94.10;;;;;;5851875;24;20162;-87
2023/09/11 01:32:29;;;;;;;14.70;12.27;;;20.40;94.10;;;;;;5928931;24;20163;-86
2023/09/11 01:35:22;;;;;;;16.13;13.15;;;20.40;94.10;;;;;;5904679;24;20153;-87
2023/09/11 01:38:25;;;;;;;15.63;13.10;;;20.50;94.10;;;;;;5966681;23;20221;-87
2023/09/11 01:47:42;;;;;;;16.40;12.77;;;20.40;94.20;;;;;;5898822;24;20189;-88
2023/09/11 02:07:30;;;;;;;14.82;12.40;;;20.40;94.20;;;;;;5874062;24;20653;-87
2023/09/11 05:26:24;;;;;;;15.40;13.05;;;20.20;94.50;;;;;;6334427;22;20533;-88
2023/09/11 05:28:58;;;;;;;14.68;12.15;;;20.20;94.50;;;;;;6222267;22;20161;-88
2023/09/11 05:31:27;;;;;;;14.93;12.52;;;20.20;94.50;;;;;;6195921;22;20157;-88
2023/09/11 05:34:10;;;;;;;14.38;12.45;;;20.20;94.50;;;;;;6221457;22;20192;-87
2023/09/11 05:37:17;;;;;;;14.93;12.25;;;20.20;94.60;;;;;;6195345;22;20253;-87
2023/09/11 05:50:08;;;;;;;12.85;10.85;;;20.30;93.90;;;;;;6272298;22;20149;-88
2023/09/11 10:31:28;;;;;;;8.40;6.72;;;20.70;94.00;;;;;;6308457;22;20272;-86
2023/09/11 11:58:26;;;;;;;8.35;7.00;;;20.70;93.60;;;;;;6067064;23;20169;-86
2023/09/11 12:01:07;;;;;;;7.50;6.70;;;20.70;93.70;;;;;;6043414;23;20224;-86
2023/09/11 12:03:59;;;;;;;9.50;7.72;;;20.70;93.60;;;;;;5952498;24;20513;-87
2023/09/11 12:54:33;;;;;;;7.38;6.57;;;20.70;93.50;;;;;;6322460;22;20139;-87
2023/09/11 12:57:19;;;;;;;8.93;7.07;;;20.70;93.40;;;;;;6246348;22;20235;-86
2023/09/11 13:00:02;;;;;;;8.30;6.93;;;20.60;93.40;;;;;;6166359;23;20625;-86
2023/09/11 13:02:54;;;;;;;;;;;;;;;;;;;;;
2023/09/11 13:05:33;;;;;;;7.88;7.07;;;20.60;93.50;;;;;;6034158;23;20237;-86
2023/09/11 13:08:08;;;;;;;7.35;6.22;;;20.70;93.40;;;;;;6080624;23;20156;-86
2023/09/11 13:10:53;;;;;;;;;;;;;;;;;;;;;
2023/09/11 13:13:53;;;;;;;7.55;6.75;;;20.70;93.50;;;;;;6060764;23;20540;-86
2023/09/11 13:16:45;;;;;;;7.30;6.47;;;20.70;93.40;;;;;;5979968;23;20190;-86
2023/09/11 13:19:38;;;;;;;8.75;6.82;;;20.60;93.50;;;;;;5974791;23;20175;-86
2023/09/11 13:22:19;;;;;;;8.82;7.00;;;20.70;93.50;;;;;;5961764;24;20175;-87
2023/09/11 13:25:04;;;;;;;8.90;7.30;;;20.60;93.60;;;;;;6003783;23;20153;-87
2023/09/11 13:28:07;;;;;;;7.85;6.65;;;20.60;93.60;;;;;;5998845;23;20249;-87
2023/09/11 13:31:55;;;;;;;11.07;7.07;;;20.50;93.70;;;;;;5929260;24;20160;-87
2023/09/11 13:34:26;;;;;;;8.77;7.28;;;20.60;93.70;;;;;;5935351;24;20216;-85
2023/09/11 13:37:01;;;;;;;9.90;7.65;;;20.60;93.90;;;;;;5931243;24;20188;-86
2023/09/11 13:39:56;;;;;;;7.78;6.88;;;20.60;94.00;;;;;;5954938;24;20684;-85
2023/09/11 13:42:53;;;;;;;;;;;;;;;;;;;;;
2023/09/11 13:45:54;;;;;;;8.40;6.55;;;20.50;94.00;;;;;;5871447;24;20162;-86
2023/09/11 13:51:54;;;;;;;;;;;;;;;;;;;;;
2023/09/11 13:54:45;;;;;;;8.95;6.75;;;20.60;94.20;;;;;;5849290;24;20186;-87
2023/09/11 13:57:59;;;;;;;7.78;6.75;;;20.70;94.20;;;;;;5817575;24;20207;-86
2023/09/11 14:00:37;;;;;;;;;;;;;;;;;;;;;
2023/09/11 14:03:36;;;;;;;8.68;7.45;;;20.70;94.20;;;;;;5766670;24;20689;-86
2023/09/11 14:06:28;;;;;;;8.95;6.93;;;20.60;94.30;;;;;;5778915;24;20509;-87
2023/09/11 14:09:05;;;;;;;7.65;6.82;;;20.60;94.30;;;;;;5756186;24;20247;-86
2023/09/11 14:11:39;;;;;;;7.88;7.00;;;20.60;94.40;;;;;;5742946;24;20702;-87
2023/09/11 14:14:05;;;;;;;8.18;7.18;;;20.60;94.30;;;;;;5742921;24;20209;-87
2023/09/11 14:17:01;;;;;;;8.02;7.10;;;20.60;94.40;;;;;;5778428;24;20196;-86
2023/09/11 14:20:01;;;;;;;;;;;;;;;;;;;;;
2023/09/11 14:22:39;;;;;;;8.15;6.85;;;20.60;94.20;;;;;;5838709;24;20237;-86
2023/09/11 14:26:23;;;;;;;8.18;7.38;;;20.70;94.30;;;;;;5868393;24;20220;-86
2023/09/11 14:28:51;;;;;;;8.68;7.65;;;20.60;94.40;;;;;;5861179;24;20239;-86
2023/09/11 15:39:22;;;;;;;8.35;7.35;;;20.60;94.90;;;;;;6274320;22;20171;-86
2023/09/11 15:42:23;;;;;;;8.85;7.43;;;20.60;94.90;;;;;;6099612;23;20230;-86
2023/09/11 15:45:48;;;;;;;8.40;7.35;;;20.60;94.80;;;;;;6085873;23;20615;-85
2023/09/11 15:48:52;;;;;;;9.77;8.40;;;20.70;94.80;;;;;;6044275;23;20177;-87
2023/09/11 15:51:41;;;;;;;7.93;7.13;;;20.60;94.80;;;;;;5920986;24;20168;-85
2023/09/11 15:55:03;;;;;;;8.73;7.50;;;20.70;95.20;;;;;;5876661;24;20161;-87
2023/09/11 15:58:33;;;;;;;8.52;7.60;;;20.70;94.80;;;;;;5870276;24;20255;-87
2023/09/11 16:01:22;;;;;;;;;;;;;;;;;;;;;
2023/09/11 16:07:19;;;;;;;8.90;7.43;;;20.70;94.90;;;;;;6027678;23;20174;-87
2023/09/11 16:09:45;;;;;;;8.70;7.50;;;20.70;94.80;;;;;;5980861;24;20163;-86
2023/09/11 16:12:38;;;;;;;;;;;;;;;;;;;;;
2023/09/11 16:15:12;;;;;;;9.05;8.10;;;20.60;95.10;;;;;;5963147;24;20680;-86
2023/09/11 16:17:53;;;;;;;9.57;7.70;;;20.60;95.20;;;;;;5908349;24;20233;-86
2023/09/11 16:20:45;;;;;;;9.02;7.72;;;20.60;95.20;;;;;;5951171;24;20160;-87
2023/09/11 16:23:44;;;;;;;8.93;7.35;;;20.60;95.10;;;;;;5974265;24;20295;-86
2023/09/11 16:26:33;;;;;;;8.57;7.55;;;20.70;95.20;;;;;;6090525;23;20152;-86
2023/09/11 16:29:10;;;;;;;9.23;8.10;;;20.70;95.10;;;;;;6007715;23;20159;-86
2023/09/11 16:31:48;;;;;;;9.25;7.72;;;20.70;95.10;;;;;;5946750;24;20157;-86
2023/09/11 16:34:44;;;;;;;8.82;7.45;;;20.80;95.10;;;;;;5923930;24;20172;-86
2023/09/11 16:37:28;;;;;;;8.77;7.72;;;20.70;95.20;;;;;;5923213;24;20728;-86
2023/09/11 16:40:38;;;;;;;10.32;7.88;;;20.70;95.10;;;;;;5915155;24;20165;-86
2023/09/11 16:43:09;;;;;;;9.05;8.07;;;20.70;95.20;;;;;;5827886;24;20154;-86
2023/09/11 16:45:50;;;;;;;8.45;7.57;;;20.70;95.20;;;;;;5940178;24;20486;-86
2023/09/11 16:52:13;;;;;;;9.23;7.30;;;20.70;95.20;;;;;;5919538;24;20152;-86
2023/09/11 16:58:10;;;;;;;9.27;7.97;;;20.70;95.30;;;;;;5861108;24;20194;-86
2023/09/11 17:03:58;;;;;;;8.80;7.68;;;20.70;95.30;;;;;;5831367;24;20201;-87
2023/09/11 17:09:38;;;;;;;8.48;7.35;;;20.70;95.30;;;;;;5781028;24;20471;-87
2023/09/11 17:12:48;;;;;;;8.85;7.43;;;20.70;95.20;;;;;;5778972;24;20164;-88
2023/09/11 17:15:58;;;;;;;9.20;7.88;;;20.70;95.20;;;;;;5734590;24;20165;-87
2023/09/11 17:19:00;;;;;;;8.73;7.53;;;20.70;95.30;;;;;;5736062;24;20177;-87
2023/09/11 17:26:17;;;;;;;8.30;7.40;;;20.70;95.60;;;;;;5638920;25;20727;-87
2023/09/11 17:32:36;;;;;;;;;;;;;;;;;;;;;
2023/09/11 17:35:49;;;;;;;;;;;;;;;;;;;;;
2023/09/11 17:53:15;;;;;;;8.95;7.93;;;20.60;95.70;;;;;;5776699;24;20505;-87
2023/09/11 17:56:27;;;;;;;;;;;;;;;;;;;;;
2023/09/11 17:59:28;;;;;;;8.25;7.35;;;20.60;95.80;;;;;;5870014;24;20645;-86
2023/09/11 18:02:13;;;;;;;8.90;7.60;;;20.70;95.90;;;;;;5906283;24;20187;-86
2023/09/11 18:36:04;;;;;;;8.45;7.20;;;20.60;95.90;;;;;;6341029;22;20143;-88
2023/09/11 18:39:09;;;;;;;;;;;;;;;;;;;;;
2023/09/11 18:42:16;;;;;;;;;;;;;;;;;;;;;
2023/09/11 18:45:02;;;;;;;8.73;7.35;;;20.60;96.10;;;;;;6089520;23;20562;-87
2023/09/11 18:47:35;;;;;;;9.93;7.88;;;20.60;96.10;;;;;;6124155;23;20188;-87
2023/09/11 18:50:28;;;;;;;;;;;;;;;;;;;;;
2023/09/11 18:53:12;;;;;;;9.45;7.75;;;20.50;96.00;;;;;;6006361;23;20686;-87
2023/09/11 18:55:50;;;;;;;9.10;7.45;;;20.60;96.00;;;;;;5962419;23;20495;-87
2023/09/11 18:58:47;;;;;;;;;;;;;;;;;;;;;
2023/09/11 19:01:32;;;;;;;8.20;7.20;;;20.50;96.00;;;;;;5814189;24;20657;-86
2023/09/11 19:04:17;;;;;;;8.73;7.82;;;20.50;96.00;;;;;;5760297;24;20696;-87
2023/09/11 19:07:58;;;;;;;8.70;7.20;;;20.60;95.90;;;;;;5848780;24;20214;-87
2023/09/11 19:10:36;;;;;;;9.30;7.65;;;20.50;95.70;;;;;;5869800;24;20166;-86
2023/09/11 19:13:42;;;;;;;9.73;7.30;;;20.50;95.80;;;;;;5769012;24;20192;-86
2023/09/11 19:16:45;;;;;;;8.38;7.25;;;20.50;95.60;;;;;;5789945;24;20283;-86
2023/09/11 19:19:54;;;;;;;8.82;7.38;;;20.50;95.60;;;;;;5779531;24;20161;-87
2023/09/11 19:22:46;;;;;;;9.05;7.30;;;20.50;95.60;;;;;;5726242;24;20184;-88
2023/09/11 19:25:48;;;;;;;8.65;7.47;;;20.50;95.40;;;;;;5795396;24;20164;-86
2023/09/11 19:28:43;;;;;;;9.70;7.43;;;20.50;95.40;;;;;;5830696;24;20537;-87
2023/09/11 19:31:28;;;;;;;;;;;;;;;;;;;;;
2023/09/11 19:34:32;;;;;;;8.10;7.15;;;20.50;95.30;;;;;;5738529;24;20261;-87
2023/09/11 19:37:07;;;;;;;9.27;7.60;;;20.40;95.20;;;;;;5735147;24;20235;-87
2023/09/11 19:39:51;;;;;;;9.30;7.47;;;20.50;95.10;;;;;;5764274;24;20255;-86
2023/09/11 19:42:27;;;;;;;8.60;7.00;;;20.40;95.20;;;;;;5761854;24;20621;-87
2023/09/11 19:48:46;;;;;;;8.52;7.18;;;20.50;95.40;;;;;;5737993;24;20223;-86
2023/09/11 19:51:44;;;;;;;8.85;7.07;;;20.40;95.00;;;;;;5787183;24;20159;-86
2023/09/11 19:54:41;;;;;;;9.35;7.28;;;20.40;95.00;;;;;;5790224;24;20168;-85
2023/09/11 19:57:20;;;;;;;9.05;7.32;;;20.40;95.00;;;;;;5763966;24;20510;-87
2023/09/11 19:59:51;;;;;;;8.82;6.97;;;20.40;94.80;;;;;;5757916;24;20186;-86
2023/09/11 20:02:26;;;;;;;9.13;7.35;;;20.40;94.80;;;;;;5739178;24;20236;-86
2023/09/11 20:08:45;;;;;;;10.50;8.27;;;20.40;94.80;;;;;;5744953;24;20248;-86
2023/09/11 20:10:47;;;;;;;10.35;8.10;;;20.40;95.00;;;;;;5709653;25;20157;-86
2023/09/11 20:13:46;;;;;;;9.48;7.20;;;20.40;95.10;;;;;;5745008;24;20207;-85
2023/09/11 20:16:39;;;;;;;9.60;7.75;;;20.40;95.20;;;;;;5714728;24;20184;-85
2023/09/11 20:19:14;;;;;;;10.65;7.78;;;20.40;95.20;;;;;;5727878;24;20163;-85
2023/09/11 20:21:53;;;;;;;9.90;7.55;;;20.30;95.20;;;;;;5790106;24;20239;-86
2023/09/11 20:24:56;;;;;;;10.15;7.82;;;20.40;95.10;;;;;;5777493;24;20692;-86
2023/09/11 20:28:14;;;;;;;10.77;8.23;;;20.40;95.20;;;;;;5844310;24;20168;-87
2023/09/11 20:30:39;;;;;;;9.88;7.63;;;20.40;95.30;;;;;;5908570;24;20161;-86
2023/09/11 20:33:30;;;;;;;10.00;7.68;;;20.40;95.30;;;;;;5873262;24;20176;-87
2023/09/11 20:35:58;;;;;;;11.48;8.40;;;20.40;95.30;;;;;;5819076;24;20167;-86
2023/09/11 20:38:49;;;;;;;11.10;8.32;;;20.40;95.30;;;;;;5943103;23;20205;-87
2023/09/11 20:41:22;;;;;;;9.75;8.00;;;20.40;95.30;;;;;;5992232;23;20158;-86
2023/09/11 20:44:01;;;;;;;10.57;8.13;;;20.40;95.30;;;;;;6017639;23;20155;-87
2023/09/11 20:46:33;;;;;;;10.30;8.27;;;20.40;95.30;;;;;;5939450;23;20159;-88
2023/09/11 20:49:10;;;;;;;11.43;8.07;;;20.50;95.30;;;;;;5991980;23;20644;-86
2023/09/11 20:52:01;;;;;;;;;;;;;;;;;;;;;
2023/09/11 20:54:37;;;;;;;9.52;7.68;;;20.40;95.20;;;;;;6132351;23;20234;-87
2023/09/11 20:57:26;;;;;;;10.90;7.90;;;20.40;95.20;;;;;;6074717;23;20259;-87
2023/09/11 21:00:02;;;;;;;10.38;7.97;;;20.40;95.20;;;;;;6117733;23;20160;-88
2023/09/11 21:02:43;;;;;;;11.07;8.00;;;20.40;95.20;;;;;;6040750;23;20159;-86
2023/09/11 21:05:17;;;;;;;10.98;8.57;;;20.40;95.20;;;;;;6007589;23;20162;-88
2023/09/11 21:08:05;;;;;;;10.95;7.85;;;20.40;95.20;;;;;;5960232;23;20158;-87
2023/09/11 21:11:03;;;;;;;9.68;7.47;;;20.40;95.30;;;;;;5926572;24;20183;-87
2023/09/11 21:13:57;;;;;;;10.48;7.78;;;20.40;95.30;;;;;;5903143;24;20515;-86
2023/09/11 21:16:45;;;;;;;11.13;8.45;;;20.40;95.30;;;;;;5880685;24;20928;-87
2023/09/11 21:19:44;;;;;;;;;;;;;;;;;;;;;
2023/09/11 21:22:28;;;;;;;12.05;8.70;;;20.40;95.30;;;;;;5895210;24;20156;-87
2023/09/11 21:25:07;;;;;;;10.27;8.65;;;20.40;95.30;;;;;;5893071;24;20564;-87
2023/09/11 21:27:42;;;;;;;10.13;8.15;;;20.40;95.50;;;;;;5899529;24;20164;-87
2023/09/11 21:30:16;;;;;;;11.15;8.32;;;20.40;95.50;;;;;;5902934;24;20171;-88
2023/09/11 21:32:53;;;;;;;11.35;8.15;;;20.40;95.60;;;;;;5902891;24;20260;-87
2023/09/11 21:35:30;;;;;;;10.60;8.00;;;20.40;95.60;;;;;;5913125;24;20268;-88
2023/09/11 21:38:11;;;;;;;11.05;8.88;;;20.40;95.70;;;;;;5962043;23;20238;-87
2023/09/11 21:41:02;;;;;;;10.60;8.40;;;20.40;95.70;;;;;;5925913;24;20615;-87
2023/09/11 21:43:45;;;;;;;9.85;8.10;;;20.40;95.40;;;;;;5933293;24;20157;-87
2023/09/11 21:46:23;;;;;;;11.50;8.93;;;20.40;95.50;;;;;;5936048;24;20171;-87
2023/09/11 21:48:55;;;;;;;12.07;8.82;;;20.40;95.60;;;;;;5904802;24;20156;-87
2023/09/11 21:51:24;;;;;;;11.95;8.90;;;20.40;95.60;;;;;;5881343;24;20231;-88
2023/09/11 21:54:03;;;;;;;11.75;9.00;;;20.30;95.50;;;;;;5857963;24;20185;-87
2023/09/11 21:56:45;;;;;;;11.45;8.27;;;20.40;95.60;;;;;;5878521;24;20253;-87
2023/09/11 21:59:26;;;;;;;11.60;9.55;;;20.40;95.60;;;;;;5980452;23;20183;-87
2023/09/11 22:02:17;;;;;;;11.35;8.93;;;20.40;95.70;;;;;;5971841;23;20158;-87
2023/09/11 22:05:02;;;;;;;11.82;8.77;;;20.40;95.70;;;;;;6034148;23;20162;-88
2023/09/11 22:07:41;;;;;;;11.23;9.27;;;20.40;95.70;;;;;;6036418;23;20177;-87
2023/09/11 22:10:14;;;;;;;12.63;9.40;;;20.40;95.80;;;;;;6017804;23;20161;-87
2023/09/11 22:12:48;;;;;;;12.95;9.85;;;20.40;95.80;;;;;;6043423;23;20154;-87
2023/09/11 22:15:24;;;;;;;11.85;9.15;;;20.40;95.70;;;;;;6064882;23;20210;-88
2023/09/11 22:18:08;;;;;;;11.38;8.63;;;20.40;95.60;;;;;;6018021;23;20189;-87
2023/09/11 22:20:46;;;;;;;10.70;7.95;;;20.30;95.80;;;;;;6113663;23;20545;-87
2023/09/11 22:23:18;;;;;;;9.73;8.25;;;20.40;95.80;;;;;;6076719;23;20739;-87
2023/09/11 22:26:56;;;;;;;10.07;8.05;;;20.40;95.80;;;;;;6041998;23;20490;-87
2023/09/11 22:29:13;;;;;;;10.20;8.25;;;20.30;95.80;;;;;;6110608;23;20160;-87
2023/09/11 22:31:54;;;;;;;10.57;8.05;;;20.30;95.80;;;;;;5995277;23;20164;-87
2023/09/11 22:34:36;;;;;;;9.73;7.72;;;20.30;95.80;;;;;;6036527;23;20149;-87
2023/09/11 22:37:06;;;;;;;10.43;8.10;;;20.40;95.80;;;;;;6042503;23;20276;-86
2023/09/11 22:39:44;;;;;;;10.60;8.07;;;20.30;95.70;;;;;;6080103;23;20187;-86
2023/09/11 22:43:01;;;;;;;10.57;8.25;;;20.30;95.70;;;;;;6057946;23;20203;-87
2023/09/11 22:45:10;;;;;;;9.75;7.82;;;20.30;95.80;;;;;;6153158;23;20148;-87
2023/09/11 22:47:58;;;;;;;;;;;;;;;;;;;;;
2023/09/11 22:50:45;;;;;;;;;;;;;;;;;;;;;
2023/09/11 22:53:20;;;;;;;10.60;8.30;;;20.30;95.80;;;;;;5897521;23;20669;-86
2023/09/11 22:55:59;;;;;;;10.98;7.82;;;20.30;95.70;;;;;;5839303;24;20188;-86
2023/09/11 22:58:35;;;;;;;10.68;8.25;;;20.30;95.80;;;;;;5813070;24;20163;-87
2023/09/11 23:01:14;;;;;;;;;;;;;;;;;;;;;
2023/09/11 23:03:45;;;;;;;9.82;8.30;;;20.30;95.80;;;;;;5912917;24;20234;-87
2023/09/11 23:06:26;;;;;;;10.65;7.90;;;20.30;95.90;;;;;;5953702;24;20160;-87
2023/09/11 23:09:04;;;;;;;10.77;8.60;;;20.30;95.80;;;;;;5888884;24;20650;-86
2023/09/11 23:11:40;;;;;;;10.32;8.35;;;20.30;95.90;;;;;;5906836;24;20239;-87
2023/09/11 23:14:32;;;;;;;10.25;7.90;;;20.30;95.90;;;;;;5980414;23;20158;-88
2023/09/11 23:17:36;;;;;;;9.90;7.97;;;20.30;95.80;;;;;;6058074;23;20217;-87
2023/09/11 23:20:25;;;;;;;10.77;8.07;;;20.40;95.90;;;;;;6034113;23;20162;-86
2023/09/11 23:23:15;;;;;;;10.20;8.20;;;20.30;96.00;;;;;;6051810;23;20177;-87
2023/09/11 23:25:48;;;;;;;10.98;8.23;;;20.30;96.10;;;;;;6037489;23;20157;-86
2023/09/11 23:28:18;;;;;;;11.07;8.43;;;20.30;96.00;;;;;;6050586;23;20142;-87
2023/09/11 23:30:44;;;;;;;10.73;8.63;;;20.30;96.00;;;;;;5970749;23;20179;-87
2023/09/11 23:33:22;;;;;;;11.85;8.90;;;20.30;95.90;;;;;;5959259;23;20216;-87
2023/09/11 23:36:07;;;;;;;11.20;8.80;;;20.20;95.90;;;;;;5948105;23;20622;-87
2023/09/11 23:38:49;;;;;;;12.70;9.07;;;20.30;95.90;;;;;;6106567;23;20287;-87
2023/09/11 23:41:26;;;;;;;10.60;8.23;;;20.30;95.90;;;;;;6070450;23;20151;-87
2023/09/11 23:44:08;;;;;;;11.77;8.77;;;20.30;95.90;;;;;;6040621;23;20609;-87
2023/09/11 23:47:03;;;;;;;11.32;8.52;;;20.30;95.90;;;;;;6042100;23;20154;-87
2023/09/11 23:49:36;;;;;;;10.55;8.63;;;20.20;95.90;;;;;;6013872;23;20164;-87
2023/09/11 23:52:12;;;;;;;10.77;8.50;;;20.30;95.90;;;;;;6016716;23;20196;-86
2023/09/11 23:54:58;;;;;;;10.25;8.25;;;20.30;95.90;;;;;;6041065;23;20272;-87
2023/09/11 23:57:56;;;;;;;10.75;8.63;;;20.30;96.00;;;;;;6007937;23;20182;-87
